sensor_id;sensor_type;location;lat;lon;timestamp;pressure;altitude;pressure_sealevel;temperature;humidity
36092;BME280;22147;52.388;13.390;2022-08-21T00:01:53;100993.91;;;17.47;100.00
36092;BME280;22147;52.388;13.390;2022-08-21T00:04:20;100997.97;;;17.50;100.00
36092;BME280;22147;52.388;13.390;2022-08-21T00:06:55;100995.53;;;17.48;100.00
36092;BME280;22147;52.388;13.390;2022-08-21T00:09:23;100986.69;;;17.46;100.00
36092;BME280;22147;52.388;13.390;2022-08-21T00:11:50;100997.91;;;17.46;100.00
36092;BME280;22147;52.388;13.390;2022-08-21T00:14:17;100984.22;;;17.45;100.00
36092;BME280;22147;52.388;13.390;2022-08-21T00:16:44;100984.59;;;17.43;100.00
36092;BME280;22147;52.388;13.390;2022-08-21T00:19:12;100984.94;;;17.42;100.00
36092;BME280;22147;52.388;13.390;2022-08-21T00:21:39;100981.63;;;17.36;100.00
36092;BME280;22147;52.388;13.390;2022-08-21T00:24:11;100976.84;;;17.37;100.00
36092;BME280;22147;52.388;13.390;2022-08-21T00:26:39;100978.84;;;17.36;100.00
36092;BME280;22147;52.388;13.390;2022-08-21T00:29:06;100980.00;;;17.35;100.00
36092;BME280;22147;52.388;13.390;2022-08-21T00:31:33;100981.63;;;17.36;100.00
36092;BME280;22147;52.388;13.390;2022-08-21T00:34:01;100985.25;;;17.37;100.00
36092;BME280;22147;52.388;13.390;2022-08-21T00:36:29;100980.38;;;17.34;100.00
36092;BME280;22147;52.388;13.390;2022-08-21T00:38:56;100990.06;;;17.36;100.00
36092;BME280;22147;52.388;13.390;2022-08-21T00:41:25;100986.44;;;17.36;100.00
36092;BME280;22147;52.388;13.390;2022-08-21T00:44:10;100991.97;;;17.32;100.00
36092;BME280;22147;52.388;13.390;2022-08-21T00:46:40;100987.91;;;17.29;100.00
36092;BME280;22147;52.388;13.390;2022-08-21T00:49:11;100984.28;;;17.29;100.00
36092;BME280;22147;52.388;13.390;2022-08-21T00:51:55;100985.13;;;17.29;100.00
36092;BME280;22147;52.388;13.390;2022-08-21T00:54:30;100990.28;;;17.27;100.00
36092;BME280;22147;52.388;13.390;2022-08-21T00:57:07;100985.84;;;17.26;100.00
36092;BME280;22147;52.388;13.390;2022-08-21T00:59:44;100989.00;;;17.25;100.00
36092;BME280;22147;52.388;13.390;2022-08-21T01:02:18;100991.34;;;17.23;100.00
36092;BME280;22147;52.388;13.390;2022-08-21T01:04:47;100988.53;;;17.23;100.00
36092;BME280;22147;52.388;13.390;2022-08-21T01:07:16;100985.31;;;17.21;100.00
36092;BME280;22147;52.388;13.390;2022-08-21T01:09:47;100998.91;;;17.19;100.00
36092;BME280;22147;52.388;13.390;2022-08-21T01:12:15;100990.03;;;17.17;100.00
36092;BME280;22147;52.388;13.390;2022-08-21T01:14:44;100996.38;;;17.14;100.00
36092;BME280;22147;52.388;13.390;2022-08-21T01:17:15;100992.75;;;17.13;100.00
36092;BME280;22147;52.388;13.390;2022-08-21T01:19:43;100991.97;;;17.13;100.00
36092;BME280;22147;52.388;13.390;2022-08-21T01:22:11;100992.41;;;17.15;100.00
36092;BME280;22147;52.388;13.390;2022-08-21T01:24:38;100997.13;;;17.11;100.00
36092;BME280;22147;52.388;13.390;2022-08-21T01:27:06;100988.25;;;17.08;100.00
36092;BME280;22147;52.388;13.390;2022-08-21T01:29:54;100995.41;;;17.06;100.00
36092;BME280;22147;52.388;13.390;2022-08-21T01:32:26;100987.72;;;17.03;100.00
36092;BME280;22147;52.388;13.390;2022-08-21T01:34:53;100991.72;;;17.02;100.00
36092;BME280;22147;52.388;13.390;2022-08-21T01:37:21;100996.88;;;17.00;100.00
36092;BME280;22147;52.388;13.390;2022-08-21T01:39:49;101005.66;;;16.98;100.00
36092;BME280;22147;52.388;13.390;2022-08-21T01:42:17;100990.38;;;16.96;100.00
36092;BME280;22147;52.388;13.390;2022-08-21T01:44:44;100989.81;;;16.90;100.00
36092;BME280;22147;52.388;13.390;2022-08-21T01:47:15;100998.09;;;16.83;100.00
36092;BME280;22147;52.388;13.390;2022-08-21T01:49:44;100991.44;;;16.75;100.00
36092;BME280;22147;52.388;13.390;2022-08-21T01:52:12;101000.97;;;16.71;100.00
36092;BME280;22147;52.388;13.390;2022-08-21T01:54:41;101002.06;;;16.66;100.00
36092;BME280;22147;52.388;13.390;2022-08-21T01:57:11;101004.31;;;16.60;100.00
36092;BME280;22147;52.388;13.390;2022-08-21T01:59:40;101004.22;;;16.57;100.00
36092;BME280;22147;52.388;13.390;2022-08-21T02:02:08;101009.75;;;16.53;100.00
36092;BME280;22147;52.388;13.390;2022-08-21T02:04:35;101008.09;;;16.52;100.00
36092;BME280;22147;52.388;13.390;2022-08-21T02:07:03;101003.22;;;16.49;100.00
36092;BME280;22147;52.388;13.390;2022-08-21T02:09:34;101004.41;;;16.48;100.00
36092;BME280;22147;52.388;13.390;2022-08-21T02:12:06;100998.78;;;16.48;100.00
36092;BME280;22147;52.388;13.390;2022-08-21T02:14:37;100996.00;;;16.48;100.00
36092;BME280;22147;52.388;13.390;2022-08-21T02:17:05;100996.78;;;16.48;100.00
36092;BME280;22147;52.388;13.390;2022-08-21T02:19:37;100992.03;;;16.49;100.00
36092;BME280;22147;52.388;13.390;2022-08-21T02:22:10;100990.84;;;16.50;100.00
36092;BME280;22147;52.388;13.390;2022-08-21T02:24:39;100986.78;;;16.47;100.00
36092;BME280;22147;52.388;13.390;2022-08-21T02:27:23;100987.22;;;16.49;100.00
36092;BME280;22147;52.388;13.390;2022-08-21T02:29:57;100992.72;;;16.46;100.00
36092;BME280;22147;52.388;13.390;2022-08-21T02:32:25;100993.47;;;16.43;100.00
36092;BME280;22147;52.388;13.390;2022-08-21T02:34:53;100993.72;;;16.38;100.00
36092;BME280;22147;52.388;13.390;2022-08-21T02:37:20;100996.25;;;16.27;100.00
36092;BME280;22147;52.388;13.390;2022-08-21T02:39:48;101002.59;;;16.24;100.00
36092;BME280;22147;52.388;13.390;2022-08-21T02:42:15;100990.13;;;16.21;100.00
36092;BME280;22147;52.388;13.390;2022-08-21T02:44:43;100987.66;;;16.20;100.00
36092;BME280;22147;52.388;13.390;2022-08-21T02:47:10;100988.38;;;16.17;100.00
36092;BME280;22147;52.388;13.390;2022-08-21T02:49:37;100993.97;;;16.17;100.00
36092;BME280;22147;52.388;13.390;2022-08-21T02:52:05;100982.75;;;16.17;100.00
36092;BME280;22147;52.388;13.390;2022-08-21T02:54:32;100986.31;;;16.14;100.00
36092;BME280;22147;52.388;13.390;2022-08-21T02:56:59;100992.59;;;16.11;100.00
36092;BME280;22147;52.388;13.390;2022-08-21T02:59:27;100992.16;;;16.08;100.00
36092;BME280;22147;52.388;13.390;2022-08-21T03:01:54;100998.13;;;16.07;100.00
36092;BME280;22147;52.388;13.390;2022-08-21T03:04:22;100998.03;;;16.03;100.00
36092;BME280;22147;52.388;13.390;2022-08-21T03:06:49;100995.13;;;16.00;100.00
36092;BME280;22147;52.388;13.390;2022-08-21T03:09:16;100995.03;;;15.96;100.00
36092;BME280;22147;52.388;13.390;2022-08-21T03:11:44;100988.53;;;15.92;100.00
36092;BME280;22147;52.388;13.390;2022-08-21T03:14:11;100987.25;;;15.90;100.00
36092;BME280;22147;52.388;13.390;2022-08-21T03:16:38;100984.88;;;15.92;100.00
36092;BME280;22147;52.388;13.390;2022-08-21T03:19:05;100986.09;;;15.91;100.00
36092;BME280;22147;52.388;13.390;2022-08-21T03:21:32;100986.88;;;15.91;100.00
36092;BME280;22147;52.388;13.390;2022-08-21T03:24:00;100986.81;;;15.87;100.00
36092;BME280;22147;52.388;13.390;2022-08-21T03:26:30;100983.56;;;15.85;100.00
36092;BME280;22147;52.388;13.390;2022-08-21T03:28:58;100986.34;;;15.85;100.00
36092;BME280;22147;52.388;13.390;2022-08-21T03:31:25;100989.03;;;15.82;100.00
36092;BME280;22147;52.388;13.390;2022-08-21T03:33:58;100993.38;;;15.79;100.00
36092;BME280;22147;52.388;13.390;2022-08-21T03:36:25;100985.34;;;15.78;100.00
36092;BME280;22147;52.388;13.390;2022-08-21T03:38:53;100984.88;;;15.76;100.00
36092;BME280;22147;52.388;13.390;2022-08-21T03:41:20;100990.81;;;15.74;100.00
36092;BME280;22147;52.388;13.390;2022-08-21T03:43:48;100992.66;;;15.70;100.00
36092;BME280;22147;52.388;13.390;2022-08-21T03:46:15;100987.78;;;15.67;100.00
36092;BME280;22147;52.388;13.390;2022-08-21T03:48:42;100990.94;;;15.65;100.00
36092;BME280;22147;52.388;13.390;2022-08-21T03:51:09;100987.69;;;15.63;100.00
36092;BME280;22147;52.388;13.390;2022-08-21T03:53:36;100991.56;;;15.59;100.00
36092;BME280;22147;52.388;13.390;2022-08-21T03:56:05;100998.22;;;15.54;100.00
36092;BME280;22147;52.388;13.390;2022-08-21T03:58:33;100993.31;;;15.51;100.00
36092;BME280;22147;52.388;13.390;2022-08-21T04:01:03;100998.84;;;15.47;100.00
36092;BME280;22147;52.388;13.390;2022-08-21T04:03:37;100999.78;;;15.39;100.00
36092;BME280;22147;52.388;13.390;2022-08-21T04:06:05;100998.06;;;15.35;100.00
36092;BME280;22147;52.388;13.390;2022-08-21T04:08:34;101003.53;;;15.31;100.00
36092;BME280;22147;52.388;13.390;2022-08-21T04:11:02;101004.69;;;15.30;100.00
36092;BME280;22147;52.388;13.390;2022-08-21T04:13:29;101006.47;;;15.35;100.00
36092;BME280;22147;52.388;13.390;2022-08-21T04:15:57;101006.69;;;15.30;100.00
36092;BME280;22147;52.388;13.390;2022-08-21T04:18:25;101006.56;;;15.26;100.00
36092;BME280;22147;52.388;13.390;2022-08-21T04:20:56;101010.91;;;15.23;100.00
36092;BME280;22147;52.388;13.390;2022-08-21T04:23:25;101003.56;;;15.19;100.00
36092;BME280;22147;52.388;13.390;2022-08-21T04:25:56;101003.56;;;15.19;100.00
36092;BME280;22147;52.388;13.390;2022-08-21T04:28:27;101009.88;;;15.16;100.00
36092;BME280;22147;52.388;13.390;2022-08-21T04:30:57;101011.84;;;15.15;100.00
36092;BME280;22147;52.388;13.390;2022-08-21T04:33:25;101012.78;;;15.19;100.00
36092;BME280;22147;52.388;13.390;2022-08-21T04:35:52;101006.72;;;15.17;100.00
36092;BME280;22147;52.388;13.390;2022-08-21T04:38:20;101011.50;;;15.17;100.00
36092;BME280;22147;52.388;13.390;2022-08-21T04:40:49;101005.91;;;15.17;100.00
36092;BME280;22147;52.388;13.390;2022-08-21T04:43:17;101011.84;;;15.15;100.00
36092;BME280;22147;52.388;13.390;2022-08-21T04:45:47;101017.81;;;15.14;100.00
36092;BME280;22147;52.388;13.390;2022-08-21T04:48:21;101015.47;;;15.16;100.00
36092;BME280;22147;52.388;13.390;2022-08-21T04:51:07;101015.00;;;15.14;100.00
36092;BME280;22147;52.388;13.390;2022-08-21T04:54:06;101023.63;;;15.09;100.00
36092;BME280;22147;52.388;13.390;2022-08-21T04:56:49;101015.16;;;15.05;100.00
36092;BME280;22147;52.388;13.390;2022-08-21T04:59:37;101026.81;;;15.07;100.00
36092;BME280;22147;52.388;13.390;2022-08-21T05:02:09;101021.88;;;15.04;100.00
36092;BME280;22147;52.388;13.390;2022-08-21T05:04:49;101028.41;;;15.08;100.00
36092;BME280;22147;52.388;13.390;2022-08-21T05:07:27;101029.00;;;15.14;100.00
36092;BME280;22147;52.388;13.390;2022-08-21T05:10:09;101027.94;;;15.18;100.00
36092;BME280;22147;52.388;13.390;2022-08-21T05:12:42;101031.31;;;15.24;100.00
36092;BME280;22147;52.388;13.390;2022-08-21T05:15:12;101028.41;;;15.20;100.00
36092;BME280;22147;52.388;13.390;2022-08-21T05:17:41;101032.94;;;15.25;100.00
36092;BME280;22147;52.388;13.390;2022-08-21T05:20:13;101031.88;;;15.30;100.00
36092;BME280;22147;52.388;13.390;2022-08-21T05:22:41;101031.53;;;15.31;100.00
36092;BME280;22147;52.388;13.390;2022-08-21T05:25:10;101030.81;;;15.34;100.00
36092;BME280;22147;52.388;13.390;2022-08-21T05:27:38;101042.56;;;15.40;100.00
36092;BME280;22147;52.388;13.390;2022-08-21T05:30:10;101038.38;;;15.46;100.00
36092;BME280;22147;52.388;13.390;2022-08-21T05:32:37;101033.69;;;15.50;100.00
36092;BME280;22147;52.388;13.390;2022-08-21T05:35:07;101040.22;;;15.54;100.00
36092;BME280;22147;52.388;13.390;2022-08-21T05:37:35;101041.94;;;15.59;100.00
36092;BME280;22147;52.388;13.390;2022-08-21T05:40:04;101046.00;;;15.61;100.00
36092;BME280;22147;52.388;13.390;2022-08-21T05:42:53;101048.00;;;15.61;100.00
36092;BME280;22147;52.388;13.390;2022-08-21T05:45:27;101047.66;;;15.62;100.00
36092;BME280;22147;52.388;13.390;2022-08-21T05:48:36;101048.72;;;15.58;100.00
36092;BME280;22147;52.388;13.390;2022-08-21T05:51:09;101044.84;;;15.62;100.00
36092;BME280;22147;52.388;13.390;2022-08-21T05:53:39;101056.41;;;15.73;100.00
36092;BME280;22147;52.388;13.390;2022-08-21T05:56:10;101045.75;;;15.79;100.00
36092;BME280;22147;52.388;13.390;2022-08-21T05:58:39;101050.81;;;15.73;100.00
36092;BME280;22147;52.388;13.390;2022-08-21T06:01:07;101053.25;;;15.75;100.00
36092;BME280;22147;52.388;13.390;2022-08-21T06:03:40;101047.84;;;15.70;100.00
36092;BME280;22147;52.388;13.390;2022-08-21T06:06:08;101043.91;;;15.71;100.00
36092;BME280;22147;52.388;13.390;2022-08-21T06:08:37;101050.53;;;15.78;100.00
36092;BME280;22147;52.388;13.390;2022-08-21T06:11:05;101048.31;;;15.84;100.00
36092;BME280;22147;52.388;13.390;2022-08-21T06:13:34;101042.44;;;15.89;100.00
36092;BME280;22147;52.388;13.390;2022-08-21T06:16:08;101045.16;;;15.85;100.00
36092;BME280;22147;52.388;13.390;2022-08-21T06:18:43;101040.09;;;15.91;100.00
36092;BME280;22147;52.388;13.390;2022-08-21T06:21:13;101046.88;;;15.90;100.00
36092;BME280;22147;52.388;13.390;2022-08-21T06:23:42;101045.34;;;15.93;100.00
36092;BME280;22147;52.388;13.390;2022-08-21T06:26:13;101051.41;;;15.95;100.00
36092;BME280;22147;52.388;13.390;2022-08-21T06:28:42;101051.06;;;15.96;100.00
36092;BME280;22147;52.388;13.390;2022-08-21T06:31:17;101045.75;;;16.07;100.00
36092;BME280;22147;52.388;13.390;2022-08-21T06:33:47;101052.81;;;16.17;100.00
36092;BME280;22147;52.388;13.390;2022-08-21T06:36:16;101064.69;;;16.26;100.00
36092;BME280;22147;52.388;13.390;2022-08-21T06:38:43;101058.34;;;16.29;100.00
36092;BME280;22147;52.388;13.390;2022-08-21T06:41:19;101062.28;;;16.40;100.00
36092;BME280;22147;52.388;13.390;2022-08-21T06:43:53;101063.25;;;16.48;100.00
36092;BME280;22147;52.388;13.390;2022-08-21T06:46:24;101068.50;;;16.49;100.00
36092;BME280;22147;52.388;13.390;2022-08-21T06:48:53;101059.81;;;16.55;100.00
36092;BME280;22147;52.388;13.390;2022-08-21T06:51:20;101064.97;;;16.53;100.00
36092;BME280;22147;52.388;13.390;2022-08-21T06:53:50;101058.38;;;16.61;100.00
36092;BME280;22147;52.388;13.390;2022-08-21T06:56:18;101057.03;;;16.71;100.00
36092;BME280;22147;52.388;13.390;2022-08-21T06:58:46;101058.25;;;16.85;100.00
36092;BME280;22147;52.388;13.390;2022-08-21T07:01:13;101058.31;;;17.05;100.00
36092;BME280;22147;52.388;13.390;2022-08-21T07:03:43;101059.56;;;17.07;100.00
36092;BME280;22147;52.388;13.390;2022-08-21T07:06:11;101059.91;;;17.22;100.00
36092;BME280;22147;52.388;13.390;2022-08-21T07:08:38;101052.75;;;17.24;100.00
36092;BME280;22147;52.388;13.390;2022-08-21T07:11:15;101052.03;;;17.27;100.00
36092;BME280;22147;52.388;13.390;2022-08-21T07:13:45;101044.50;;;17.32;100.00
36092;BME280;22147;52.388;13.390;2022-08-21T07:27:11;101051.03;;;17.55;100.00
36092;BME280;22147;52.388;13.390;2022-08-21T07:29:38;101047.56;;;17.81;100.00
36092;BME280;22147;52.388;13.390;2022-08-21T07:32:06;101053.94;;;17.98;100.00
36092;BME280;22147;52.388;13.390;2022-08-21T07:34:33;101051.34;;;18.08;100.00
36092;BME280;22147;52.388;13.390;2022-08-21T07:36:59;101038.19;;;18.13;100.00
36092;BME280;22147;52.388;13.390;2022-08-21T07:39:35;101043.47;;;18.37;100.00
36092;BME280;22147;52.388;13.390;2022-08-21T07:42:03;101044.28;;;18.61;100.00
36092;BME280;22147;52.388;13.390;2022-08-21T07:44:34;101045.09;;;18.84;100.00
36092;BME280;22147;52.388;13.390;2022-08-21T07:47:00;101049.69;;;18.96;100.00
36092;BME280;22147;52.388;13.390;2022-08-21T07:49:27;101053.06;;;19.05;100.00
36092;BME280;22147;52.388;13.390;2022-08-21T07:51:54;101047.81;;;19.04;100.00
36092;BME280;22147;52.388;13.390;2022-08-21T07:54:21;101051.41;;;19.01;100.00
36092;BME280;22147;52.388;13.390;2022-08-21T07:56:59;101047.44;;;19.05;100.00
36092;BME280;22147;52.388;13.390;2022-08-21T07:59:26;101045.16;;;19.15;100.00
36092;BME280;22147;52.388;13.390;2022-08-21T08:01:52;101040.81;;;19.21;100.00
36092;BME280;22147;52.388;13.390;2022-08-21T08:04:19;101036.22;;;19.36;99.08
36092;BME280;22147;52.388;13.390;2022-08-21T08:06:51;101033.69;;;19.57;99.48
36092;BME280;22147;52.388;13.390;2022-08-21T08:09:18;101027.97;;;19.50;93.89
36092;BME280;22147;52.388;13.390;2022-08-21T08:11:46;101040.41;;;19.49;92.92
36092;BME280;22147;52.388;13.390;2022-08-21T08:14:13;101031.84;;;19.68;91.28
36092;BME280;22147;52.388;13.390;2022-08-21T08:16:40;101034.47;;;19.84;89.92
36092;BME280;22147;52.388;13.390;2022-08-21T08:19:06;101026.19;;;19.99;84.69
36092;BME280;22147;52.388;13.390;2022-08-21T08:21:34;101041.31;;;19.87;87.49
36092;BME280;22147;52.388;13.390;2022-08-21T08:24:02;101027.34;;;19.94;88.41
36092;BME280;22147;52.388;13.390;2022-08-21T08:26:44;101038.00;;;20.11;84.00
36092;BME280;22147;52.388;13.390;2022-08-21T08:29:20;101043.91;;;20.37;89.24
36092;BME280;22147;52.388;13.390;2022-08-21T08:31:47;101046.56;;;20.60;80.01
36092;BME280;22147;52.388;13.390;2022-08-21T08:34:14;101047.38;;;20.60;77.23
36092;BME280;22147;52.388;13.390;2022-08-21T08:36:50;101044.97;;;20.62;82.80
36092;BME280;22147;52.388;13.390;2022-08-21T08:39:18;101046.31;;;20.38;74.45
36092;BME280;22147;52.388;13.390;2022-08-21T08:42:06;101051.94;;;20.34;76.93
36092;BME280;22147;52.388;13.390;2022-08-21T08:45:06;101049.88;;;20.31;75.66
36092;BME280;22147;52.388;13.390;2022-08-21T08:47:43;101040.63;;;20.31;73.25
36092;BME280;22147;52.388;13.390;2022-08-21T08:50:32;101041.31;;;20.21;71.95
36092;BME280;22147;52.388;13.390;2022-08-21T08:53:20;101035.88;;;20.01;70.15
36092;BME280;22147;52.388;13.390;2022-08-21T08:55:52;101037.44;;;19.99;73.30
36092;BME280;22147;52.388;13.390;2022-08-21T09:00:58;101021.72;;;19.98;72.17
36092;BME280;22147;52.388;13.390;2022-08-21T09:03:27;101022.97;;;20.00;71.90
36092;BME280;22147;52.388;13.390;2022-08-21T09:18:04;101031.66;;;20.22;73.84
36092;BME280;22147;52.388;13.390;2022-08-21T09:21:12;101030.28;;;20.08;72.35
36092;BME280;22147;52.388;13.390;2022-08-21T09:29:25;101036.19;;;20.33;72.61
36092;BME280;22147;52.388;13.390;2022-08-21T09:31:56;101031.06;;;20.43;74.40
36092;BME280;22147;52.388;13.390;2022-08-21T09:34:30;101031.66;;;20.63;73.06
36092;BME280;22147;52.388;13.390;2022-08-21T09:36:58;101035.78;;;20.72;72.50
36092;BME280;22147;52.388;13.390;2022-08-21T09:39:38;101032.09;;;20.65;73.07
36092;BME280;22147;52.388;13.390;2022-08-21T09:42:25;101028.59;;;20.79;72.28
36092;BME280;22147;52.388;13.390;2022-08-21T09:45:21;101026.63;;;20.86;70.26
36092;BME280;22147;52.388;13.390;2022-08-21T09:47:49;101026.69;;;20.93;70.56
36092;BME280;22147;52.388;13.390;2022-08-21T09:50:20;101037.72;;;21.13;70.10
36092;BME280;22147;52.388;13.390;2022-08-21T09:52:55;101028.38;;;21.05;69.85
36092;BME280;22147;52.388;13.390;2022-08-21T09:55:38;101020.63;;;20.91;67.06
36092;BME280;22147;52.388;13.390;2022-08-21T09:58:35;101026.69;;;20.97;67.35
36092;BME280;22147;52.388;13.390;2022-08-21T10:01:05;101025.19;;;21.14;67.86
36092;BME280;22147;52.388;13.390;2022-08-21T10:03:33;101030.06;;;21.21;65.83
36092;BME280;22147;52.388;13.390;2022-08-21T10:06:03;101026.47;;;21.24;67.09
36092;BME280;22147;52.388;13.390;2022-08-21T10:08:37;101035.34;;;21.22;62.55
36092;BME280;22147;52.388;13.390;2022-08-21T10:11:16;101035.41;;;21.29;64.27
36092;BME280;22147;52.388;13.390;2022-08-21T10:13:56;101026.13;;;21.32;61.59
36092;BME280;22147;52.388;13.390;2022-08-21T10:19:43;101032.31;;;21.56;63.46
36092;BME280;22147;52.388;13.390;2022-08-21T10:28:35;101029.63;;;21.85;59.43
36092;BME280;22147;52.388;13.390;2022-08-21T10:31:20;101027.63;;;21.92;57.07
36092;BME280;22147;52.388;13.390;2022-08-21T10:37:38;101027.69;;;22.10;55.61
36092;BME280;22147;52.388;13.390;2022-08-21T10:40:45;101030.47;;;21.96;58.90
36092;BME280;22147;52.388;13.390;2022-08-21T10:43:59;101024.84;;;22.07;55.42
36092;BME280;22147;52.388;13.390;2022-08-21T10:46:47;101030.53;;;22.17;53.42
36092;BME280;22147;52.388;13.390;2022-08-21T10:55:41;101030.13;;;22.19;51.36
36092;BME280;22147;52.388;13.390;2022-08-21T11:01:14;101031.38;;;22.32;50.64
36092;BME280;22147;52.388;13.390;2022-08-21T11:04:11;101022.09;;;22.50;49.33
36092;BME280;22147;52.388;13.390;2022-08-21T11:06:46;101024.53;;;22.84;48.80
36092;BME280;22147;52.388;13.390;2022-08-21T11:09:20;101027.78;;;22.96;44.57
36092;BME280;22147;52.388;13.390;2022-08-21T11:11:57;101025.38;;;22.73;46.05
36092;BME280;22147;52.388;13.390;2022-08-21T11:18:19;101022.13;;;22.79;46.35
36092;BME280;22147;52.388;13.390;2022-08-21T11:21:14;101022.53;;;22.77;46.18
36092;BME280;22147;52.388;13.390;2022-08-21T11:26:47;101016.06;;;22.91;43.72
36092;BME280;22147;52.388;13.390;2022-08-21T11:29:24;101022.09;;;22.89;44.30
36092;BME280;22147;52.388;13.390;2022-08-21T11:38:13;101004.72;;;22.76;43.93
36092;BME280;22147;52.388;13.390;2022-08-21T11:41:28;101014.03;;;22.73;43.03
36092;BME280;22147;52.388;13.390;2022-08-21T11:44:18;101005.13;;;22.75;44.16
36092;BME280;22147;52.388;13.390;2022-08-21T11:47:19;101009.59;;;22.90;43.84
36092;BME280;22147;52.388;13.390;2022-08-21T11:50:18;101008.78;;;22.47;45.04
36092;BME280;22147;52.388;13.390;2022-08-21T11:53:22;101004.72;;;22.48;46.97
36092;BME280;22147;52.388;13.390;2022-08-21T11:59:06;101001.47;;;22.82;46.65
36092;BME280;22147;52.388;13.390;2022-08-21T12:01:41;100999.84;;;22.88;46.94
36092;BME280;22147;52.388;13.390;2022-08-21T12:04:32;100995.03;;;22.85;44.92
36092;BME280;22147;52.388;13.390;2022-08-21T12:07:27;101003.09;;;22.65;46.26
36092;BME280;22147;52.388;13.390;2022-08-21T12:10:08;101005.16;;;22.61;47.23
36092;BME280;22147;52.388;13.390;2022-08-21T12:12:40;101000.69;;;22.74;46.11
36092;BME280;22147;52.388;13.390;2022-08-21T12:21:04;100990.16;;;22.96;46.01
36092;BME280;22147;52.388;13.390;2022-08-21T12:26:51;100992.19;;;23.06;42.08
36092;BME280;22147;52.388;13.390;2022-08-21T12:29:28;100995.00;;;23.03;43.03
36092;BME280;22147;52.388;13.390;2022-08-21T12:32:02;100997.41;;;23.15;41.64
36092;BME280;22147;52.388;13.390;2022-08-21T12:35:15;100996.16;;;23.30;42.01
36092;BME280;22147;52.388;13.390;2022-08-21T12:40:59;100994.16;;;23.27;41.29
36092;BME280;22147;52.388;13.390;2022-08-21T12:43:41;100989.69;;;23.37;43.03
36092;BME280;22147;52.388;13.390;2022-08-21T12:46:20;100982.78;;;23.45;42.60
36092;BME280;22147;52.388;13.390;2022-08-21T12:48:58;100986.00;;;23.44;41.24
36092;BME280;22147;52.388;13.390;2022-08-21T12:51:34;100984.81;;;23.30;42.04
36092;BME280;22147;52.388;13.390;2022-08-21T12:54:26;100981.63;;;23.28;42.52
36092;BME280;22147;52.388;13.390;2022-08-21T12:57:04;100972.59;;;23.51;41.68
36092;BME280;22147;52.388;13.390;2022-08-21T12:59:38;100977.47;;;23.54;39.28
36092;BME280;22147;52.388;13.390;2022-08-21T13:02:15;100983.53;;;23.49;41.26
36092;BME280;22147;52.388;13.390;2022-08-21T13:04:46;100980.34;;;23.44;43.10
36092;BME280;22147;52.388;13.390;2022-08-21T13:07:22;100973.03;;;23.43;41.38
36092;BME280;22147;52.388;13.390;2022-08-21T13:09:56;100973.78;;;23.65;42.62
36092;BME280;22147;52.388;13.390;2022-08-21T13:12:29;100979.03;;;23.77;41.87
36092;BME280;22147;52.388;13.390;2022-08-21T13:15:01;100982.19;;;23.86;42.65
36092;BME280;22147;52.388;13.390;2022-08-21T13:17:37;100985.44;;;23.85;42.52
36092;BME280;22147;52.388;13.390;2022-08-21T13:20:23;100968.88;;;23.72;44.01
36092;BME280;22147;52.388;13.390;2022-08-21T13:22:53;100971.34;;;23.60;44.89
36092;BME280;22147;52.388;13.390;2022-08-21T13:25:27;100974.19;;;23.67;44.03
36092;BME280;22147;52.388;13.390;2022-08-21T13:28:10;100967.19;;;23.89;45.20
36092;BME280;22147;52.388;13.390;2022-08-21T13:30:45;100968.34;;;23.95;44.78
36092;BME280;22147;52.388;13.390;2022-08-21T13:33:15;100979.28;;;23.97;46.42
36092;BME280;22147;52.388;13.390;2022-08-21T13:38:34;100981.84;;;23.77;45.31
36092;BME280;22147;52.388;13.390;2022-08-21T13:43:49;100966.72;;;23.98;46.50
36092;BME280;22147;52.388;13.390;2022-08-21T13:46:26;100971.25;;;23.88;46.90
36092;BME280;22147;52.388;13.390;2022-08-21T13:48:59;100967.50;;;24.06;45.99
36092;BME280;22147;52.388;13.390;2022-08-21T13:51:29;100973.38;;;24.33;47.44
36092;BME280;22147;52.388;13.390;2022-08-21T13:53:57;100968.47;;;24.41;46.01
36092;BME280;22147;52.388;13.390;2022-08-21T13:56:28;100972.03;;;24.52;46.36
36092;BME280;22147;52.388;13.390;2022-08-21T13:59:07;100977.63;;;24.63;46.31
36092;BME280;22147;52.388;13.390;2022-08-21T14:01:49;100968.41;;;24.51;46.30
36092;BME280;22147;52.388;13.390;2022-08-21T14:04:29;100970.28;;;24.65;44.74
36092;BME280;22147;52.388;13.390;2022-08-21T14:07:02;100967.06;;;24.63;46.07
36092;BME280;22147;52.388;13.390;2022-08-21T14:09:42;100961.84;;;24.58;45.40
36092;BME280;22147;52.388;13.390;2022-08-21T14:12:16;100967.63;;;24.40;45.51
36092;BME280;22147;52.388;13.390;2022-08-21T14:14:48;100966.63;;;24.16;47.83
36092;BME280;22147;52.388;13.390;2022-08-21T14:17:37;100962.28;;;23.97;46.76
36092;BME280;22147;52.388;13.390;2022-08-21T14:20:12;100965.31;;;23.54;47.54
36092;BME280;22147;52.388;13.390;2022-08-21T14:22:51;100967.41;;;23.35;49.05
36092;BME280;22147;52.388;13.390;2022-08-21T14:30:40;100958.19;;;23.06;49.66
36092;BME280;22147;52.388;13.390;2022-08-21T14:33:11;100959.44;;;23.02;49.17
36092;BME280;22147;52.388;13.390;2022-08-21T14:35:42;100963.06;;;22.88;49.46
36092;BME280;22147;52.388;13.390;2022-08-21T14:38:14;100961.44;;;22.97;64.13